Terminal Aerodrome Forecast
Issued by NWS Detroit/Pontiac, MI

Home | Current Version | Previous Version | Text Only | Print | Product List | Glossary On
Versions: 1 2 3 4 5 6 7 8 9 10 11 12 13 14 15 16 17 18
000
FTUS43 KDTX 281700
TAFFNT
TAF
KFNT 281731Z 2818/2918 36012KT P6SM SCT025 BKN040
     FM282200 34010KT P6SM SCT050
     FM290400 27006KT P6SM SCT050 BKN120 OVC250
     FM291500 28012KT P6SM BKN050=

USA.gov is the U.S. government's official web portal to all federal, state and local government web resources and services.